Home Login RADIO ONLINE RSS Facebook
Find Radio Online
AM FM HD

Site of the Day
WLRQ-FM
Advertisement

Nielsen Audio Ratings

Market Rank: 1-50 | 51-100 | 101-150 | 151-200 | 201-250 | 251-300

Rank Market Posted Survey Population
8 Atlanta GA 10-26-20 PPM 4,971,100
3 Chicago IL 10-26-20 PPM 7,952,400
5 Dallas-Ft. Worth TX 10-26-20 PPM 6,339,800
6 Houston-Galveston TX 10-26-20 PPM 5,979,700
2 Los Angeles CA 10-26-20 PPM 11,469,700
43 Middlesex-Somerset-Union 10-26-20 PPM 1,483,000
20 Nassau-Suffolk NY 10-26-20 PPM 2,458,400
1 New York NY 10-26-20 PPM 16,110,500
9 Philadelphia PA 10-26-20 PPM 4,627,200
26 Riverside-San Bernardino CA 10-26-20 PPM 2,145,300
4 San Francisco CA 10-26-20 PPM 6,764,400
37 San Jose CA 10-26-20 PPM 1,674,400
89 Chattanooga TN 10-20-20 12S 606,900
108 Huntsville AL 10-20-20 12S 506,400
127 Jackson MS 10-20-20 12S 420,600
93 Madison WI 10-20-20 12S 601,200
87 Colorado Springs CO 10-19-20 12S 613,200
71 Des Moines IA 10-19-20 12S 751,900
102 Mobile AL 10-19-20 12S 543,300
96 Spokane WA 10-19-20 12S 590,200
106 Wichita KS 10-19-20 12S 512,200
85 Columbia SC 10-16-20 12S 617,400
94 Greenville-New Bern NC 10-16-20 12S 599,800
90 Little Rock AR 10-16-20 12S 606,300
101 Springfield MA 10-16-20 12S 554,700
105 Toledo OH 10-16-20 12S 512,600
88 Akron OH 10-15-20 12S 612,500
79 Charleston SC 10-15-20 12S 690,400
91 Monterey-Salinas CA 10-15-20 12S 603,700

Advertisement

100 Syracuse NY 10-15-20 12S 560,600
69 Albuquerque NM 10-14-20 12S 775,400
76 El Paso TX 10-14-20 12S 696,500
84 Harrisburg-Lebanon-Carlisle PA 10-14-20 12S 619,900
72 Metro Fairfield County BH 10-14-20 12S 744,900
80 Bakersfield CA 10-13-20 12S 661,300
64 Honolulu HI 10-13-20 12S 832,800
73 Knoxville TN 10-13-20 12S 739,500
75 Omaha-Council Bluffs NE 10-13-20 12S 726,800
65 Tulsa OK 10-13-20 12S 827,500
67 Albany-Schenectady-Troy NY 10-12-20 12S 814,900
74 Allentown-Bethlehem PA 10-12-20 12S 736,400
63 Dayton OH 10-12-20 12S 842,100
66 Fresno CA 10-12-20 12S 817,300
68 Grand Rapids MI 10-12-20 12S 804,900
78 Wilkes Barre-Scranton PA 10-12-20 12S 692,500
61 Birmingham AL 10-09-20 12S 925,500
59 Buffalo-Niagara Falls NY 10-09-20 12S 980,800
57 Fort Myers-Naples-Marco Island FL 10-09-20 12S 1,027,200
58 Greenville-Spartanburg SC 10-09-20 12S 1,003,700
53 Richmond VA 10-09-20 12S 1,069,300
60 Rochester NY 10-09-20 12S 955,600
62 Tucson AZ 10-09-20 12S 906,300
77 Baton Rouge LA 10-08-20 12S 695,200
54 Louisville KY 10-08-20 12S 1,053,000
50 New Orleans LA 10-08-20 12S 1,258,400
49 Oklahoma City OK 10-08-20 12S 1,279,500
19 Puerto Rico 10-08-20 12S 2,740,700
32 Austin TX 10-02-20 PPM 1,877,300
48 Greensboro-Winston-Salem-High Point NC 10-02-20 PPM 1,315,100

Advertisement

52 Hartford-New Britain CT 10-02-20 PPM 1,078,200
39 Indianapolis IN 10-02-20 PPM 1,585,200
46 Jacksonville FL 10-02-20 PPM 1,345,400
51 Memphis TN 10-02-20 PPM 1,127,600
42 Milwaukee-Racine WI 10-02-20 PPM 1,508,500
40 Nashville TN 10-02-20 PPM 1,512,100
45 Norfolk-VA Beach-Newport News VA 10-02-20 PPM 1,411,600
44 Providence RI 10-02-20 PPM 1,419,800
38 Raleigh-Durham NC 10-02-20 PPM 1,651,400
47 West Palm Beach FL 10-02-20 PPM 1,321,300
23 Charlotte-Gastonia NC 10-01-20 PPM 2,391,900
33 Cincinnati OH 10-01-20 PPM 1,856,600
35 Cleveland OH 10-01-20 PPM 1,774,400
36 Columbus OH 10-01-20 PPM 1,722,000
34 Kansas City MO 10-01-20 PPM 1,777,000
31 Las Vegas NV 10-01-20 PPM 1,945,100
30 Orlando FL 10-01-20 PPM 1,956,800
29 Pittsburgh PA 10-01-20 PPM 1,972,100
21 Portland OR 10-01-20 PPM 2,413,400
27 Sacramento CA 10-01-20 PPM 2,052,500
28 Salt Lake City UT 10-01-20 PPM 2,012,700
25 San Antonio TX 10-01-20 PPM 2,151,300
22 Baltimore MD 09-30-20 PPM 2,408,800
10 Boston MA 09-30-20 PPM 4,376,900
18 Denver-Boulder CO 09-30-20 PPM 2,796,400
13 Detroit MI 09-30-20 PPM 3,848,800
11 Miami-Fort Lauderdale FL 09-30-20 PPM 4,159,800
15 Minneapolis-St. Paul MN 09-30-20 PPM 3,032,400
14 Phoenix AZ 09-30-20 PPM 3,815,900
16 San Diego CA 09-30-20 PPM 2,873,100

Advertisement

12 Seattle-Tacoma WA 09-30-20 PPM 4,006,500
24 St. Louis MO 09-30-20 PPM 2,342,200
17 Tampa-St. Petersburg FL 09-30-20 PPM 2,797,700
7 Washington DC 09-30-20 PPM 5,019,400
250 Bismarck ND 08-07-20 2A 107,400
247 Harrisonburg VA 08-07-20 2A 119,600
261 Jackson TN 08-07-20 2A 83,100
254 San Angelo TX 08-07-20 2A 100,500
253 Sioux City IA 08-07-20 2A 100,900
182 Sioux Falls SD 08-07-20 2A 230,000
246 Wichita Falls TX 08-07-20 2A 120,600
231 Abilene TX 08-06-20 2A 145,300
234 Billings MT 08-06-20 2A 136,800
222 Columbia MO 08-06-20 2A 157,500
230 Eau Claire WI 08-06-20 2A 146,500
248 Grand Island-Kearney-Hastings NE 08-06-20 2A 119,000
237 Grand Junction CO 08-06-20 2A 133,000
227 Joplin MO 08-06-20 2A 151,000
218 La Crosse WI 08-06-20 2A 167,700
220 Panama City FL 08-06-20 2A 160,500
242 Parkersburg-Marietta WV 08-06-20 2A 124,100
217 Rochester MN 08-06-20 2A 168,700
245 Wheeling WV 08-06-20 2S 121,000
192 Bend OR 08-05-20 2A 213,800
204 Cedar Rapids IA 08-05-20 2S 193,500
201 Chico CA 08-05-20 2A 201,300
209 Duluth-Superior MN-WI 08-05-20 2S 180,100
194 Fargo-Moorhead ND-MN 08-05-20 2S 210,700
210 Florence SC 08-05-20 2A 174,100
262 Grand Forks ND 08-05-20 2A 78,600

Advertisement

188 Laredo TX 08-05-20 2A 219,700
185 St. Cloud MN 08-05-20 2A 226,500
236 Waterloo-Cedar Falls IA 08-05-20 2A 133,800
206 Winchester VA 08-05-20 2A 185,900
198 Yakima WA 08-05-20 2A 205,400
168 Amarillo TX 08-04-20 2A 259,400
191 Bryan-College Station TX 08-04-20 2A 214,400
195 Cape Cod MA 08-04-20 2A 208,900
189 Columbus GA 08-04-20 2S 217,300
187 Frederick MD 08-04-20 2C 222,700
166 Lubbock TX 08-04-20 2S 262,600
162 Odessa-Midland TX 08-04-20 2A 275,300
224 Redding CA 08-04-20 2A 154,100
255 Sheboygan WI 08-04-20 2A 99,300
210 Terre Haute IN 08-04-20 2S 174,100
157 Traverse City-Petoskey-Cadillac, MI 08-04-20 2A 299,900
175 Tri-Cities WA 08-04-20 2A 246,300
190 Waco TX 08-04-20 2A 216,400
176 Anchorage AK 08-03-20 2S 242,400
196 Binghamton NY 08-03-20 2S 207,900
170 Bowling Green KY 08-03-20 2A 255,000
199 Charleston WV 08-03-20 2A 202,400
181 Erie PA 08-03-20 2S 232,400
145 Eugene-Springfield OR 08-03-20 2S 337,800
164 Evansville IN 08-03-20 2S 268,900
169 Huntington-Ashland WV 08-03-20 2S 258,400
130 Macon GA 08-03-20 2S 378,500
174 Morgantown-Clarksburg-Fairmont WV 08-03-20 2A 246,700
161 Rockford IL 08-03-20 2S 285,400
159 Tallahassee FL 08-03-20 2S 289,900

Advertisement

244 Valdosta GA 08-03-20 2A 123,100
178 Wausau-Stevens Point WI 08-03-20 2A 240,800
235 Albany GA 07-31-20 2A 134,800
149 Ann Arbor MI 07-31-20 2A 330,500
148 Beaumont-Port Arthur TX 07-31-20 2A 330,700
228 Bloomington IL 07-31-20 2S 147,900
258 Brunswick GA 07-31-20 2A 90,300
193 Dothan AL 07-31-20 2A 212,700
137 Killeen-Temple TX 07-31-20 2A 356,700
213 Lake Charles LA 07-31-20 2A 171,100
155 Montgomery AL 07-31-20 2S 307,500
179 New Bedford-Fall River MA 07-31-20 2C 234,200
158 Peoria IL 07-31-20 2S 294,000
153 Quad Cities IL 07-31-20 2S 309,800
134 Salisbury-Ocean City MD 07-31-20 2S 364,700
146 Savannah GA 07-31-20 2S 334,300
136 Springfield MO 07-31-20 2S 360,100
138 Appleton-Oshkosh WI 07-30-20 2S 352,000
112 Corpus Christi TX 07-30-20 2S 477,200
120 Fayetteville (North West Arkansas) AR 07-30-20 2A 451,400
129 Fayetteville NC 07-30-20 2S 386,500
140 Flint MI 07-30-20 2S 346,200
186 Green Bay WI 07-30-20 2S 224,100
128 Lansing-East Lansing MI 07-30-20 2S 420,300
135 Reading PA 07-30-20 2A 362,100
98 Reno NV 07-30-20 2S 569,200
150 Saginaw-Bay City-Midland MI 07-30-20 2A 325,200
144 Shreveport LA 07-30-20 2S 339,800
239 Texarkana TX-AR 07-30-20 2A 128,200
141 Tyler-Longview TX 07-30-20 2S 342,900
133 Youngstown-Warren OH 07-30-20 2S 370,300
260 Cheyenne WY 07-29-20 2A 84,400
107 Fort Collins-Greeley CO 07-29-20 2A 511,500
118 Modesto CA 07-29-20 2S 458,900
126 Morristown NJ 07-29-20 2C 431,000
122 Oxnard-Ventura CA 07-29-20 2S 443,300
131 Palm Springs CA 07-29-20 2S 375,400
171 San Luis Obispo CA 07-29-20 2A 250,700
207 Santa Barbara CA 07-29-20 2A 181,900
200 Santa Maria-Lompoc CA 07-29-20 2A 201,500
183 South Bend IN 07-29-20 2S 229,800
115 Victor Valley 07-29-20 2S 469,600
154 Atlantic City NJ 07-28-20 2S 308,500
110 Augusta GA 07-28-20 2S 493,300
240 Florence-Muscle Shoals AL 07-28-20 2A 128,100
116 Fort Wayne IN 07-28-20 2S 464,300
104 Lexington-Fayette KY 07-28-20 2S 528,300
219 Muncie-Marion IN 07-28-20 2A 167,100
121 Roanoke-Lynchburg VA 07-28-20 2S 449,800
243 Sussex NJ 07-28-20 2A 123,200

Advertisement

152 Trenton NJ 07-28-20 2S 320,500
119 Worcester MA 07-28-20 2S 457,500
92 Boise ID 07-27-20 2S 601,600
95 Daytona Beach FL 07-27-20 2S 596,400
97 Fort Pierce-Stuart FL 07-27-20 2S 574,900
177 Fort Walton Beach FL 07-27-20 2A 241,500
83 Lakeland-Winter Haven FL 07-27-20 2S 620,900
103 Melbourne-Titusville-Cocoa FL 07-27-20 2S 537,800
124 Pensacola FL 07-27-20 2S 435,900
232 Pueblo CO 07-27-20 2S 144,900
205 Salina-Manhattan KS 07-27-20 2A 193,400
203 Topeka KS 07-27-20 2S 196,500
241 Twin Falls-Sun Valley ID 07-27-20 2A 127,700
86 Gainesville-Ocala FL 07-24-20 2S 615,100
259 Hot Springs AR 07-24-20 2A 86,700
81 Stockton 07-24-20 2S 632,400
142 Canton OH 07-23-20 2S 342,700
165 Hagerstown-Chambersburg MD 07-23-20 2A 263,400
117 Lancaster PA 07-23-20 2S 460,900
163 Lincoln NE 07-23-20 2S 273,100
132 Myrtle Beach SC 07-23-20 2A 373,100
180 New London CT 07-23-20 2A 232,600
82 Wilmington DE 07-23-20 2S 625,900
111 York PA 07-23-20 2S 477,700
114 Johnson City-Kingsport TN 07-22-20 2S 472,100
214 Las Cruces-Deming NM 07-22-20 2A 169,500
215 Sunbury-Selinsgrove-Lewisburg PA 07-22-20 2A 169,200
109 Visalia-Tulare-Hanford CA 07-22-20 2S 500,500
256 Williamsport PA 07-22-20 2A 97,900
249 Battle Creek MI 07-21-20 2A 114,300

Advertisement

202 Danbury CT 07-21-20 2A 200,000
160 Ft. Smith AR 07-21-20 2A 285,900
184 Kalamazoo MI 07-21-20 2S 228,900
226 Lima OH 07-21-20 2A 153,400
56 McAllen-Brownsville TX 07-21-20 2S 1,036,900
228 Muskegon MI 07-21-20 2A 147,900
125 New Haven CT 07-21-20 2S 431,700
70 Sarasota-Bradenton FL 07-21-20 2S 755,300
251 Augusta-Waterville ME 07-20-20 2A 107,300
216 Bangor ME 07-20-20 2S 168,800
147 Burlington-Plattsburgh VT-NY 07-20-20 2S 333,300
173 Concord (Lakes Region) MI 07-20-20 2S 246,800
41 Hudson Valley 07-20-20 2S 1,508,800
221 Lebanon-Hanover-White River Junction, NH 07-20-20 2A 158,300
197 Manchester NH 07-20-20 2S 206,100
252 Montpelier-Barre-St. Johnsbury VT 07-20-20 2S 106,600
151 Newburgh-Middletown NY 07-20-20 2A 322,000
99 Portland ME 07-20-20 2S 565,400
123 Portsmouth-Dover NH 07-20-20 2S 443,200
167 Poughkeepsie NY 07-20-20 2A 259,600
172 Utica-Rome NY 07-20-20 2S 250,200
156 Asheville NC 07-17-20 2S 307,200
225 Elmira-Corning NY 07-17-20 2A 153,600
139 Fredericksburg VA 07-17-20 2S 349,000
223 Olean NY 07-17-20 2A 155,000
208 Tuscaloosa AL 07-17-20 2A 181,300
143 Biloxi-Gulfport-Pascagoula MS 07-16-20 2S 341,300
113 Lafayette LA 07-16-20 2S 477,000
212 Laurel-Hattiesburg MS 07-16-20 2A 173,500
55 Monmouth-Ocean NJ 07-16-20 2S 1,049,400

Advertisement

238 Monroe LA 08-09-19 2A 128,400
257 Watertown NY 09-16-15 2A 90,900

Survey Key:
PPM - Portable People Meter
4S - Diary Standard Continuous Measurement
2S - Diary Standard Measurement
2C - Diary Condensed Measurement
2A - Diary 2-book Average

Ratings profiles are Copyright © 2020 Nielsen Audio. May not be quoted orreproduced without the prior written permission of Nielsen Audio.

Advertisement

Promotions Spotlight

Advertisement

Advertisement

Advertisement

Advertisement

Advertisement